Time;durP1;ratioP1;P1;durP2;ratioP2;P2;SDS_P1;SDS_P2;PMS_P1;PMS_P2;Temp;Humidity;BMP_temperature;BMP_pressure;BME280_temperature;BME280_humidity;BME280_pressure;Samples;Min_cycle;Max_cycle;Signal;HPM_P1;HPM_P2
2021/05/24 00:00:21;;;;;;;2.07;1.50;;;7.70;33.30;;;;;;5054124;28;20447;-70
2021/05/24 00:02:48;;;;;;;2.73;1.83;;;7.60;33.50;;;;;;5055534;28;20423;-70
2021/05/24 00:05:16;;;;;;;1.93;1.50;;;7.60;33.80;;;;;;5059511;28;20453;-70
2021/05/24 00:07:42;;;;;;;2.42;1.55;;;7.60;34.00;;;;;;5037550;28;20466;-70
2021/05/24 00:10:10;;;;;;;2.53;1.87;;;7.60;34.10;;;;;;5055352;28;20244;-70
2021/05/24 00:12:37;;;;;;;4.65;2.30;;;7.60;33.80;;;;;;5056130;28;20178;-70
2021/05/24 00:15:04;;;;;;;2.20;1.47;;;7.60;33.90;;;;;;5056193;28;20281;-70
2021/05/24 00:17:30;;;;;;;3.40;1.50;;;7.60;34.10;;;;;;5055863;28;20424;-70
2021/05/24 00:19:56;;;;;;;3.93;2.03;;;7.60;34.20;;;;;;5055914;28;21036;-69
2021/05/24 00:22:21;;;;;;;1.87;1.60;;;7.50;34.40;;;;;;5055846;28;20208;-69
2021/05/24 00:24:47;;;;;;;4.13;1.80;;;7.60;34.30;;;;;;5038205;28;20204;-70
2021/05/24 00:27:13;;;;;;;2.43;2.07;;;7.60;34.30;;;;;;5056283;28;20180;-70
2021/05/24 00:29:39;;;;;;;2.70;1.77;;;7.50;34.30;;;;;;5057534;28;20490;-70
2021/05/24 00:32:05;;;;;;;1.87;1.50;;;7.50;34.50;;;;;;5038981;28;20564;-70
2021/05/24 00:34:31;;;;;;;2.53;1.63;;;7.50;35.00;;;;;;5055696;28;20489;-70
2021/05/24 00:36:56;;;;;;;2.20;2.00;;;7.40;35.00;;;;;;5055817;28;20422;-70
2021/05/24 00:39:23;;;;;;;1.50;1.20;;;7.40;35.00;;;;;;5055761;28;20205;-70
2021/05/24 00:41:49;;;;;;;2.00;1.60;;;7.40;35.00;;;;;;5037670;28;20664;-70
2021/05/24 00:44:15;;;;;;;2.40;2.07;;;7.40;35.00;;;;;;5037546;28;20468;-69
2021/05/24 00:46:41;;;;;;;1.60;1.40;;;7.30;34.90;;;;;;5037489;28;21036;-70
2021/05/24 00:49:07;;;;;;;1.97;1.70;;;7.30;35.00;;;;;;5055362;28;20484;-69
2021/05/24 00:51:33;;;;;;;2.53;1.80;;;7.40;35.00;;;;;;5055104;28;20257;-70
2021/05/24 00:53:59;;;;;;;1.80;1.42;;;7.40;35.00;;;;;;5055603;28;20635;-70
2021/05/24 00:56:25;;;;;;;2.73;1.53;;;7.40;35.30;;;;;;5054505;28;20189;-70
2021/05/24 00:58:51;;;;;;;3.30;2.17;;;7.40;35.30;;;;;;5054939;28;20486;-70
2021/05/24 01:01:17;;;;;;;4.23;1.70;;;7.40;35.80;;;;;;5055638;28;20540;-72
2021/05/24 01:03:43;;;;;;;3.10;2.60;;;7.30;35.90;;;;;;5037688;28;20428;-70
2021/05/24 01:06:09;;;;;;;4.50;2.00;;;7.30;36.50;;;;;;5055617;28;20965;-70
2021/05/24 01:08:34;;;;;;;3.80;2.40;;;7.40;37.10;;;;;;5055115;28;20214;-70
2021/05/24 01:11:00;;;;;;;6.00;2.30;;;7.30;37.20;;;;;;5054486;28;20662;-70
2021/05/24 01:13:26;;;;;;;3.53;2.67;;;7.30;37.40;;;;;;5054789;28;20555;-70
2021/05/24 01:15:51;;;;;;;3.10;2.53;;;7.30;37.20;;;;;;5053590;28;20182;-69
2021/05/24 01:18:17;;;;;;;4.00;2.50;;;7.40;37.70;;;;;;5051758;28;20197;-69
2021/05/24 01:20:43;;;;;;;4.43;2.50;;;7.30;37.90;;;;;;5051465;28;20205;-70
2021/05/24 01:23:13;;;;;;;3.80;3.20;;;7.40;38.20;;;;;;5051705;28;20633;-70
2021/05/24 01:25:50;;;;;;;9.17;2.77;;;7.40;38.60;;;;;;5033923;28;20525;-69
2021/05/24 01:28:17;;;;;;;2.83;2.27;;;7.40;38.60;;;;;;5051916;28;20393;-69
2021/05/24 01:30:44;;;;;;;4.53;3.00;;;7.40;39.00;;;;;;5051352;28;20853;-69
2021/05/24 01:33:10;;;;;;;3.70;3.20;;;7.40;39.00;;;;;;5051762;28;20482;-69
2021/05/24 01:35:38;;;;;;;4.23;2.50;;;7.40;39.10;;;;;;5051072;28;20466;-70
2021/05/24 01:38:06;;;;;;;2.80;2.60;;;7.40;39.10;;;;;;5051680;28;20471;-69
2021/05/24 01:40:34;;;;;;;5.37;3.17;;;7.40;38.70;;;;;;5051307;28;20520;-70
2021/05/24 01:43:04;;;;;;;3.07;2.60;;;7.40;39.00;;;;;;5051594;28;20420;-68
2021/05/24 01:45:29;;;;;;;5.00;2.40;;;7.30;39.40;;;;;;5051621;28;20464;-69
2021/05/24 01:47:58;;;;;;;2.73;2.53;;;7.30;39.80;;;;;;5051809;28;20425;-70
2021/05/24 01:50:24;;;;;;;3.60;2.57;;;7.30;40.00;;;;;;5033480;28;20420;-69
2021/05/24 01:52:50;;;;;;;3.80;3.17;;;7.30;40.70;;;;;;5051278;28;20927;-71
2021/05/24 01:55:16;;;;;;;4.53;3.40;;;7.20;39.90;;;;;;5051709;28;20423;-69
2021/05/24 01:57:42;;;;;;;3.43;3.13;;;7.20;39.90;;;;;;5051288;28;20777;-69
2021/05/24 02:00:15;;;;;;;7.93;3.10;;;7.10;39.90;;;;;;5050958;28;20223;-70
2021/05/24 02:02:45;;;;;;;6.78;3.38;;;7.10;40.70;;;;;;5049914;28;20264;-69
2021/05/24 02:05:12;;;;;;;3.92;2.92;;;7.00;40.60;;;;;;5049720;28;20258;-70
2021/05/24 02:07:39;;;;;;;3.83;3.47;;;7.00;40.90;;;;;;5051076;28;20175;-69
2021/05/24 02:10:07;;;;;;;2.85;2.55;;;6.90;41.20;;;;;;5050591;28;20236;-70
2021/05/24 02:12:36;;;;;;;2.60;2.40;;;6.90;42.30;;;;;;5050891;28;20246;-70
2021/05/24 02:15:10;;;;;;;5.80;3.83;;;6.90;41.80;;;;;;5051052;28;20497;-70
2021/05/24 02:17:36;;;;;;;5.70;3.38;;;6.80;42.20;;;;;;5051312;28;20430;-71
2021/05/24 02:20:06;;;;;;;4.67;4.07;;;6.80;42.00;;;;;;5050647;28;20200;-71
2021/05/24 02:22:34;;;;;;;5.20;2.90;;;6.80;42.60;;;;;;5050860;28;20422;-71
2021/05/24 02:25:00;;;;;;;7.72;2.95;;;6.80;42.40;;;;;;5050763;28;20206;-70
2021/05/24 02:27:25;;;;;;;6.50;4.00;;;6.80;42.40;;;;;;5051048;28;20199;-69
2021/05/24 02:29:51;;;;;;;3.60;3.30;;;6.80;42.50;;;;;;5050679;28;20193;-70
2021/05/24 02:32:17;;;;;;;6.53;3.40;;;;;;;;;;5051124;28;20176;-69
2021/05/24 02:34:42;;;;;;;3.85;3.53;;;6.70;42.10;;;;;;5050902;28;20289;-69
2021/05/24 02:37:08;;;;;;;5.30;3.40;;;6.80;42.90;;;;;;5050760;28;20184;-69
2021/05/24 02:39:34;;;;;;;3.37;3.07;;;6.80;42.80;;;;;;5050185;28;20205;-68
2021/05/24 02:41:59;;;;;;;6.37;3.07;;;6.80;42.50;;;;;;5049388;28;20603;-69
2021/05/24 02:44:25;;;;;;;4.50;3.33;;;6.80;42.30;;;;;;5050744;28;20236;-68
2021/05/24 02:46:51;;;;;;;10.03;3.30;;;6.80;42.40;;;;;;5053871;28;20179;-69
2021/05/24 02:49:16;;;;;;;4.43;3.17;;;6.80;42.30;;;;;;5054280;28;20242;-69
2021/05/24 02:51:42;;;;;;;4.87;3.43;;;6.80;42.30;;;;;;5054598;28;20789;-69
2021/05/24 02:54:08;;;;;;;8.10;3.33;;;6.80;42.10;;;;;;5054561;28;20184;-69
2021/05/24 02:56:35;;;;;;;7.43;2.88;;;6.90;41.80;;;;;;5054450;28;20411;-69
2021/05/24 02:59:01;;;;;;;3.65;3.15;;;6.90;41.70;;;;;;5054135;28;20201;-69
2021/05/24 03:01:28;;;;;;;3.67;3.15;;;6.90;41.80;;;;;;5054449;28;20186;-68
2021/05/24 03:03:55;;;;;;;8.20;4.25;;;6.90;41.70;;;;;;5054424;28;20174;-70
2021/05/24 03:06:22;;;;;;;3.90;3.50;;;6.90;42.00;;;;;;5054317;28;20198;-68
2021/05/24 03:08:48;;;;;;;4.80;3.10;;;6.90;42.20;;;;;;5054111;28;20184;-69
2021/05/24 03:11:14;;;;;;;4.53;4.13;;;6.80;41.80;;;;;;5054178;28;20446;-68
2021/05/24 03:13:40;;;;;;;3.23;2.93;;;6.80;42.20;;;;;;5054226;28;20410;-68
2021/05/24 03:16:06;;;;;;;3.83;2.80;;;6.80;42.20;;;;;;5054305;28;20417;-70
2021/05/24 03:18:32;;;;;;;4.33;3.90;;;6.80;42.00;;;;;;5054438;28;20173;-69
2021/05/24 03:20:57;;;;;;;3.77;3.20;;;6.80;42.00;;;;;;5054537;28;20197;-69
2021/05/24 03:23:23;;;;;;;3.70;3.30;;;6.80;42.20;;;;;;5054200;28;20216;-69
2021/05/24 03:25:48;;;;;;;4.67;3.07;;;6.80;42.30;;;;;;5054057;28;20284;-68
2021/05/24 03:28:14;;;;;;;3.33;3.03;;;6.80;41.80;;;;;;5054126;28;20181;-68
2021/05/24 03:30:39;;;;;;;4.70;3.30;;;6.80;41.90;;;;;;5053822;28;20197;-68
2021/05/24 03:33:06;;;;;;;3.27;2.80;;;6.80;41.90;;;;;;5053979;28;20225;-71
2021/05/24 03:35:31;;;;;;;3.72;3.33;;;6.80;41.90;;;;;;5052580;28;20699;-68
2021/05/24 03:37:57;;;;;;;3.33;3.03;;;6.80;41.70;;;;;;5053864;28;20272;-68
2021/05/24 03:40:23;;;;;;;3.23;2.90;;;6.80;41.50;;;;;;5053618;28;20211;-68
2021/05/24 03:42:48;;;;;;;4.07;3.58;;;6.80;41.50;;;;;;5053982;28;20528;-68
2021/05/24 03:45:17;;;;;;;2.83;2.63;;;6.80;41.40;;;;;;5053825;28;20321;-68
2021/05/24 03:47:44;;;;;;;3.28;2.97;;;6.80;41.30;;;;;;5053583;28;20192;-69
2021/05/24 03:50:10;;;;;;;5.55;2.90;;;6.80;40.90;;;;;;5053027;28;20206;-69
2021/05/24 03:52:36;;;;;;;9.63;3.20;;;6.80;40.60;;;;;;5053371;28;20169;-68
2021/05/24 03:55:03;;;;;;;3.17;2.43;;;6.80;40.80;;;;;;5035484;28;20279;-69
2021/05/24 03:57:28;;;;;;;3.10;2.80;;;6.80;40.90;;;;;;5052526;28;20414;-68
2021/05/24 03:59:54;;;;;;;3.17;2.73;;;6.80;41.30;;;;;;5053026;28;20506;-68
2021/05/24 04:02:20;;;;;;;7.60;3.47;;;6.70;41.40;;;;;;5035207;28;20271;-68
2021/05/24 04:04:46;;;;;;;6.97;3.83;;;6.70;41.20;;;;;;5051654;28;20203;-68
2021/05/24 04:07:13;;;;;;;3.95;3.22;;;6.70;41.20;;;;;;5051952;28;20183;-68
2021/05/24 04:09:39;;;;;;;3.42;2.80;;;6.70;41.30;;;;;;5052627;28;20700;-68
2021/05/24 04:12:05;;;;;;;3.07;2.60;;;6.80;41.00;;;;;;5053107;28;20174;-69
2021/05/24 04:14:32;;;;;;;3.93;3.27;;;6.80;40.60;;;;;;5053057;28;20486;-68
2021/05/24 04:16:58;;;;;;;4.33;3.20;;;6.90;40.10;;;;;;5051716;28;20478;-68
2021/05/24 04:19:24;;;;;;;2.60;2.40;;;6.90;39.70;;;;;;5052498;28;20447;-69
2021/05/24 04:21:49;;;;;;;2.80;2.50;;;7.00;39.80;;;;;;5052894;28;20188;-68
2021/05/24 04:24:15;;;;;;;6.00;2.40;;;7.00;39.80;;;;;;5052933;28;20258;-69
2021/05/24 04:26:41;;;;;;;3.03;2.70;;;7.10;39.90;;;;;;5053046;28;20173;-69
2021/05/24 04:29:07;;;;;;;5.00;2.83;;;7.20;39.30;;;;;;5052451;28;20635;-69
2021/05/24 04:31:34;;;;;;;5.77;3.33;;;7.20;38.90;;;;;;5034801;28;20463;-68
2021/05/24 04:33:59;;;;;;;5.17;3.20;;;7.30;38.40;;;;;;5052922;28;20182;-68
2021/05/24 04:36:25;;;;;;;3.43;3.00;;;7.40;37.70;;;;;;5052541;28;20476;-69
2021/05/24 04:38:50;;;;;;;4.60;2.73;;;7.40;37.40;;;;;;5051089;28;20568;-68
2021/05/24 04:41:16;;;;;;;6.77;3.50;;;7.50;37.20;;;;;;5052401;28;20209;-69
2021/05/24 04:43:42;;;;;;;4.43;2.80;;;7.50;36.60;;;;;;5053096;28;20257;-69
2021/05/24 04:46:08;;;;;;;3.20;3.00;;;7.60;36.50;;;;;;5052543;28;20263;-68
2021/05/24 04:48:34;;;;;;;2.47;2.27;;;7.70;36.30;;;;;;5052170;28;20412;-67
2021/05/24 04:51:01;;;;;;;3.70;2.67;;;7.70;35.20;;;;;;5052120;28;21016;-68
2021/05/24 04:53:27;;;;;;;4.07;2.57;;;7.70;34.90;;;;;;5052364;28;20461;-69
2021/05/24 04:55:52;;;;;;;2.77;2.37;;;7.80;35.00;;;;;;5052314;28;20929;-70
2021/05/24 04:58:19;;;;;;;3.67;2.60;;;7.80;34.90;;;;;;5052251;28;20202;-69
2021/05/24 05:00:45;;;;;;;2.63;2.43;;;7.90;34.60;;;;;;5050576;28;20194;-69
2021/05/24 05:03:11;;;;;;;2.77;2.50;;;8.00;33.90;;;;;;5052147;28;20884;-69
2021/05/24 05:05:37;;;;;;;2.97;2.67;;;8.10;34.10;;;;;;5052198;28;20452;-70
2021/05/24 05:08:03;;;;;;;3.60;3.17;;;8.20;33.60;;;;;;5052239;28;20182;-69
2021/05/24 05:10:28;;;;;;;3.13;2.63;;;8.30;32.20;;;;;;5096058;22;20727;-75
2021/05/24 05:12:54;;;;;;;6.00;2.80;;;8.40;31.80;;;;;;5117455;28;20402;-75
2021/05/24 05:15:20;;;;;;;3.50;2.20;;;8.60;31.10;;;;;;5097026;28;20184;-73
2021/05/24 05:17:45;;;;;;;4.83;2.07;;;8.70;30.80;;;;;;5097393;28;20228;-73
2021/05/24 05:20:12;;;;;;;2.30;2.10;;;8.80;30.90;;;;;;5115050;28;20207;-74
2021/05/24 05:22:37;;;;;;;4.47;2.50;;;8.90;30.10;;;;;;5115675;28;20179;-72
2021/05/24 05:25:04;;;;;;;2.30;1.97;;;9.10;29.70;;;;;;5115206;28;21001;-72
2021/05/24 05:27:30;;;;;;;3.20;2.17;;;9.20;29.20;;;;;;5116471;28;20184;-73
2021/05/24 05:29:55;;;;;;;3.07;2.20;;;9.40;28.60;;;;;;5115821;28;20427;-73
2021/05/24 05:32:21;;;;;;;2.27;1.80;;;9.50;28.00;;;;;;5116197;28;20176;-74
2021/05/24 05:34:47;;;;;;;10.00;2.90;;;9.60;27.20;;;;;;5116073;28;20938;-73
2021/05/24 05:37:13;;;;;;;3.47;3.07;;;9.70;27.30;;;;;;5115776;28;20168;-73
2021/05/24 05:39:38;;;;;;;2.57;2.33;;;9.80;27.30;;;;;;5115476;28;20433;-73
2021/05/24 05:42:04;;;;;;;2.50;2.30;;;9.90;26.60;;;;;;5115898;28;20602;-72
2021/05/24 05:44:29;;;;;;;3.00;1.93;;;9.90;26.30;;;;;;5097664;28;20258;-72
2021/05/24 05:46:55;;;;;;;5.67;2.97;;;10.00;25.70;;;;;;5115420;28;20417;-74
2021/05/24 05:49:21;;;;;;;5.60;2.20;;;10.00;25.10;;;;;;5097122;28;20174;-73
2021/05/24 05:51:47;;;;;;;6.90;2.90;;;10.00;24.70;;;;;;5097183;28;20646;-73
2021/05/24 05:54:12;;;;;;;3.60;2.30;;;10.10;25.20;;;;;;5115483;28;20457;-74
2021/05/24 05:56:38;;;;;;;2.63;2.00;;;10.20;25.70;;;;;;5096681;28;20224;-71
2021/05/24 05:59:03;;;;;;;3.20;2.70;;;10.40;25.80;;;;;;5115184;28;20545;-73
2021/05/24 06:01:29;;;;;;;9.00;2.60;;;10.50;24.60;;;;;;5114777;28;20203;-72
2021/05/24 06:03:55;;;;;;;5.97;2.50;;;10.60;25.40;;;;;;5114916;28;20597;-71
2021/05/24 06:06:20;;;;;;;2.93;2.63;;;10.90;25.10;;;;;;5096236;28;20190;-72
2021/05/24 06:08:46;;;;;;;3.10;2.73;;;11.10;24.30;;;;;;5114915;28;20179;-73
2021/05/24 06:11:11;;;;;;;2.77;2.57;;;11.10;23.90;;;;;;5113977;28;20214;-73
2021/05/24 06:13:37;;;;;;;3.43;3.13;;;11.20;24.00;;;;;;5113608;28;20182;-74
2021/05/24 06:16:02;;;;;;;4.87;3.10;;;11.30;24.40;;;;;;5095293;28;20660;-74
2021/05/24 06:18:28;;;;;;;3.47;3.17;;;11.30;24.50;;;;;;5113913;28;20255;-73
2021/05/24 06:20:54;;;;;;;3.43;2.87;;;11.40;23.60;;;;;;5095323;28;20697;-73
2021/05/24 06:23:19;;;;;;;4.43;3.10;;;11.60;23.70;;;;;;5113699;28;20268;-74
2021/05/24 06:25:45;;;;;;;4.90;3.60;;;11.50;23.30;;;;;;5113629;28;20218;-73
2021/05/24 06:28:12;;;;;;;4.80;3.70;;;11.50;23.60;;;;;;5095845;28;20171;-73
2021/05/24 06:30:38;;;;;;;3.47;3.17;;;11.70;23.40;;;;;;5095206;28;20203;-74
2021/05/24 06:33:04;;;;;;;3.53;3.23;;;11.90;22.60;;;;;;5114154;28;20409;-74
2021/05/24 06:35:29;;;;;;;3.50;3.20;;;11.90;21.90;;;;;;5096041;28;20887;-72
2021/05/24 06:37:55;;;;;;;4.50;4.10;;;12.00;22.20;;;;;;5114750;28;20211;-73
2021/05/24 06:40:21;;;;;;;3.27;3.07;;;12.10;21.70;;;;;;5114108;28;20436;-72
2021/05/24 06:42:47;;;;;;;3.70;3.40;;;12.30;21.80;;;;;;5114196;28;20172;-74
2021/05/24 06:45:15;;;;;;;7.13;3.10;;;12.30;21.30;;;;;;5114128;28;20457;-71
2021/05/24 06:47:40;;;;;;;3.50;3.20;;;12.40;21.60;;;;;;5114044;28;20707;-74
2021/05/24 06:50:07;;;;;;;5.90;3.80;;;12.50;22.10;;;;;;5095172;28;20904;-74
2021/05/24 06:52:33;;;;;;;4.53;4.00;;;12.60;22.10;;;;;;5113863;28;20169;-74
2021/05/24 06:54:59;;;;;;;4.50;4.03;;;12.70;20.20;;;;;;5113917;28;20775;-74
2021/05/24 06:57:25;;;;;;;6.43;4.07;;;12.90;20.30;;;;;;5096609;28;20517;-75
2021/05/24 06:59:50;;;;;;;6.10;3.80;;;12.90;20.80;;;;;;5095211;28;20470;-75
2021/05/24 07:02:17;;;;;;;3.50;3.27;;;12.90;20.70;;;;;;5113740;28;20187;-73
2021/05/24 07:04:44;;;;;;;4.10;3.80;;;13.00;20.40;;;;;;5114560;28;20225;-74
2021/05/24 07:07:09;;;;;;;4.20;3.87;;;13.30;20.70;;;;;;5115564;28;20422;-72
2021/05/24 07:09:35;;;;;;;4.23;3.83;;;13.70;20.10;;;;;;5095843;28;20446;-74
2021/05/24 07:12:01;;;;;;;5.27;4.77;;;14.50;18.80;;;;;;5115515;28;20178;-73
2021/05/24 07:14:27;;;;;;;5.20;4.57;;;15.50;17.10;;;;;;5115894;28;20184;-74
2021/05/24 07:16:54;;;;;;;5.30;4.83;;;15.70;16.40;;;;;;5115362;28;20180;-75
2021/05/24 07:19:19;;;;;;;7.33;4.77;;;15.60;15.80;;;;;;5100656;28;20440;-74
2021/05/24 07:21:45;;;;;;;5.80;5.40;;;15.70;16.30;;;;;;5117248;28;21099;-75
2021/05/24 07:24:11;;;;;;;5.40;4.90;;;15.90;15.70;;;;;;5117490;28;20232;-75
2021/05/24 07:26:36;;;;;;;8.83;5.30;;;16.50;16.20;;;;;;5099390;28;20175;-74
2021/05/24 07:29:02;;;;;;;5.73;5.33;;;17.10;15.10;;;;;;5114922;28;20535;-73
2021/05/24 07:31:28;;;;;;;5.50;5.10;;;17.30;14.70;;;;;;5117013;28;20192;-74
2021/05/24 07:33:54;;;;;;;5.20;4.70;;;17.40;12.60;;;;;;5119774;28;20406;-73
2021/05/24 07:36:19;;;;;;;4.57;4.30;;;17.70;13.40;;;;;;5121577;28;20539;-74
2021/05/24 07:38:45;;;;;;;6.40;5.90;;;18.30;12.40;;;;;;5122197;28;20176;-72
2021/05/24 07:41:10;;;;;;;6.27;5.87;;;19.00;10.30;;;;;;5121314;28;20224;-75
2021/05/24 07:43:36;;;;;;;5.60;5.30;;;19.10;10.00;;;;;;5120843;28;20229;-74
2021/05/24 07:46:02;;;;;;;5.90;5.60;;;19.30;10.20;;;;;;5122122;28;20400;-74
2021/05/24 07:48:27;;;;;;;6.57;6.00;;;19.70;9.20;;;;;;5120923;28;20240;-75
2021/05/24 07:50:53;;;;;;;6.23;5.93;;;20.00;9.60;;;;;;5103097;28;20506;-75
2021/05/24 07:53:19;;;;;;;6.60;6.20;;;20.10;9.30;;;;;;5121030;28;20192;-72
2021/05/24 07:55:44;;;;;;;6.60;6.30;;;20.10;9.10;;;;;;5102046;28;20177;-72
2021/05/24 07:58:10;;;;;;;7.90;7.20;;;20.20;10.00;;;;;;5119964;28;20192;-75
2021/05/24 08:00:35;;;;;;;7.37;6.87;;;20.50;9.70;;;;;;5120390;28;20196;-75
2021/05/24 08:03:01;;;;;;;8.03;7.63;;;20.70;8.30;;;;;;5120677;28;20203;-74
2021/05/24 08:05:26;;;;;;;7.53;7.13;;;20.80;8.10;;;;;;5119876;28;20207;-73
2021/05/24 08:07:52;;;;;;;7.50;7.17;;;20.50;9.10;;;;;;5102562;28;20176;-74
2021/05/24 08:10:18;;;;;;;7.37;7.07;;;20.40;8.60;;;;;;5120797;28;20216;-75
2021/05/24 08:12:44;;;;;;;9.10;8.60;;;20.30;15.60;;;;;;5122021;28;20513;-74
2021/05/24 08:15:18;;;;;;;8.20;7.70;;;20.30;8.00;;;;;;5104797;28;20176;-75
2021/05/24 08:17:43;;;;;;;8.27;7.93;;;19.90;8.70;;;;;;5121812;28;20446;-74
2021/05/24 08:20:10;;;;;;;8.73;8.33;;;19.80;9.80;;;;;;5121779;28;20449;-73
2021/05/24 08:22:36;;;;;;;8.90;8.50;;;;;;;;;;5121847;28;20263;-75
2021/05/24 08:25:04;;;;;;;8.50;8.10;;;19.50;9.50;;;;;;5121041;28;20454;-75
2021/05/24 08:27:29;;;;;;;8.97;8.67;;;19.10;10.50;;;;;;5121020;28;20415;-72
2021/05/24 08:29:55;;;;;;;8.93;8.53;;;18.90;9.30;;;;;;5122382;28;20509;-73
2021/05/24 08:32:21;;;;;;;8.77;8.37;;;18.60;9.80;;;;;;5104010;28;20180;-72
2021/05/24 08:34:46;;;;;;;9.57;9.10;;;18.40;11.10;;;;;;5122664;28;20200;-74
2021/05/24 08:37:12;;;;;;;9.97;9.47;;;18.30;10.90;;;;;;5121536;28;20172;-74
2021/05/24 08:39:39;;;;;;;9.10;8.60;;;18.40;10.80;;;;;;5121625;28;20192;-72
2021/05/24 08:42:07;;;;;;;9.63;9.23;;;18.40;11.00;;;;;;5122760;28;20172;-72
2021/05/24 08:44:34;;;;;;;9.07;8.77;;;18.50;11.00;;;;;;5121823;28;20528;-75
2021/05/24 08:47:01;;;;;;;9.90;9.27;;;18.50;11.00;;;;;;5122178;28;20410;-73
2021/05/24 08:49:26;;;;;;;9.77;9.30;;;18.20;10.80;;;;;;5103557;28;20409;-74
2021/05/24 08:51:52;;;;;;;9.73;9.33;;;18.10;11.00;;;;;;5122233;28;20442;-72
2021/05/24 08:54:18;;;;;;;9.50;9.10;;;18.30;11.90;;;;;;5124059;28;20183;-73
2021/05/24 08:56:44;;;;;;;9.33;8.93;;;18.40;11.00;;;;;;5122226;28;20172;-73
2021/05/24 08:59:09;;;;;;;9.50;9.10;;;18.50;12.10;;;;;;5120695;28;20425;-74
2021/05/24 09:01:35;;;;;;;9.60;9.20;;;18.50;11.10;;;;;;5120752;28;20208;-75
2021/05/24 09:04:05;;;;;;;10.10;9.50;;;18.70;11.20;;;;;;5119326;28;20550;-72
2021/05/24 09:06:39;;;;;;;10.13;9.73;;;19.00;11.40;;;;;;5120847;28;20259;-72
2021/05/24 09:09:10;;;;;;;9.80;9.40;;;19.10;11.00;;;;;;5120440;28;20420;-73
2021/05/24 09:11:35;;;;;;;9.53;9.03;;;19.10;11.20;;;;;;5121166;28;20446;-74
2021/05/24 09:14:01;;;;;;;11.03;10.47;;;19.10;11.20;;;;;;5103274;28;20463;-73
2021/05/24 09:16:31;;;;;;;10.90;10.40;;;19.40;11.30;;;;;;5119734;28;20176;-74
2021/05/24 09:19:20;;;;;;;10.60;10.20;;;19.70;10.50;;;;;;5119464;28;20176;-74
2021/05/24 09:21:52;;;;;;;10.00;9.50;;;19.90;9.90;;;;;;5101279;28;20422;-71
2021/05/24 09:24:42;;;;;;;11.03;10.50;;;20.10;9.60;;;;;;5118911;28;20488;-73
2021/05/24 09:27:30;;;;;;;10.67;10.07;;;20.40;9.40;;;;;;5119042;28;20410;-71
2021/05/24 09:29:59;;;;;;;10.93;10.43;;;20.50;10.10;;;;;;5120090;28;20457;-74
2021/05/24 09:32:26;;;;;;;10.90;10.50;;;20.60;11.10;;;;;;5119862;28;20418;-73
2021/05/24 09:34:53;;;;;;;11.20;10.80;;;20.60;9.80;;;;;;5119481;28;20415;-74
2021/05/24 09:37:29;;;;;;;11.40;10.80;;;20.70;9.90;;;;;;5119767;28;20482;-73
2021/05/24 09:39:55;;;;;;;11.87;11.37;;;20.70;9.90;;;;;;5100684;28;20458;-73
2021/05/24 09:42:21;;;;;;;11.00;10.53;;;20.40;13.50;;;;;;5120630;28;20414;-72
2021/05/24 09:44:53;;;;;;;11.30;10.80;;;20.20;13.60;;;;;;5121172;28;20421;-74
2021/05/24 09:47:36;;;;;;;11.50;11.03;;;20.10;10.40;;;;;;5119228;28;20264;-71
2021/05/24 09:50:13;;;;;;;12.40;11.80;;;20.10;10.30;;;;;;5119049;28;20434;-74
2021/05/24 09:52:40;;;;;;;11.17;10.77;;;20.20;10.40;;;;;;5117517;28;20422;-75
2021/05/24 09:55:15;;;;;;;12.00;11.30;;;20.30;10.90;;;;;;5115201;28;20446;-74
2021/05/24 09:57:56;;;;;;;9.90;9.50;;;20.20;15.70;;;;;;5100891;28;20475;-76
2021/05/24 10:00:24;;;;;;;10.70;10.30;;;20.20;15.10;;;;;;5118701;28;20518;-75
2021/05/24 10:02:53;;;;;;;10.80;10.37;;;20.40;14.70;;;;;;5116476;28;20410;-71
2021/05/24 10:05:19;;;;;;;10.87;10.47;;;20.40;13.10;;;;;;5112429;28;20454;-73
2021/05/24 10:07:45;;;;;;;10.60;10.20;;;20.40;14.30;;;;;;5112484;28;20418;-71
2021/05/24 10:10:12;;;;;;;11.40;11.00;;;20.30;25.10;;;;;;5113020;28;20442;-73
2021/05/24 10:12:38;;;;;;;11.07;10.57;;;20.70;10.10;;;;;;5118431;28;20415;-73
2021/05/24 10:15:06;;;;;;;11.70;11.30;;;20.70;10.70;;;;;;5116871;28;20406;-74
2021/05/24 10:17:33;;;;;;;11.50;11.10;;;20.90;10.10;;;;;;5117772;28;20406;-74
2021/05/24 10:19:58;;;;;;;11.47;11.07;;;20.80;9.90;;;;;;5118512;28;20446;-75
2021/05/24 10:22:24;;;;;;;12.20;11.60;;;20.70;11.50;;;;;;5117934;28;20933;-74
2021/05/24 10:24:50;;;;;;;13.20;12.30;;;20.80;10.20;;;;;;5117627;28;20688;-74
2021/05/24 10:27:16;;;;;;;12.63;12.03;;;21.00;10.00;;;;;;5116330;28;20177;-74
2021/05/24 10:29:42;;;;;;;12.53;11.93;;;21.20;10.50;;;;;;5116430;28;20824;-74
2021/05/24 10:32:09;;;;;;;12.23;11.73;;;21.30;9.80;;;;;;5098821;28;20456;-74
2021/05/24 10:34:39;;;;;;;11.93;11.43;;;21.10;9.80;;;;;;5116658;28;20187;-75
2021/05/24 10:37:14;;;;;;;11.90;11.40;;;21.50;10.20;;;;;;5115636;28;20546;-74
2021/05/24 10:39:47;;;;;;;11.80;11.40;;;21.40;9.80;;;;;;5098648;28;20552;-75
2021/05/24 10:42:14;;;;;;;12.47;11.97;;;21.40;9.90;;;;;;5098874;28;20422;-76
2021/05/24 10:44:45;;;;;;;12.60;11.97;;;21.40;9.70;;;;;;5117578;28;20502;-75
2021/05/24 10:47:20;;;;;;;13.57;12.77;;;21.40;10.50;;;;;;5098000;28;20435;-76
2021/05/24 10:50:04;;;;;;;12.47;11.97;;;21.50;9.90;;;;;;5116383;28;20454;-74
2021/05/24 10:52:33;;;;;;;12.97;12.47;;;21.70;10.10;;;;;;5115249;28;20410;-75
2021/05/24 10:54:58;;;;;;;12.87;12.27;;;21.70;9.70;;;;;;5114845;28;20410;-75
2021/05/24 10:57:28;;;;;;;13.20;12.60;;;21.60;9.90;;;;;;5115128;28;20418;-73
2021/05/24 10:59:56;;;;;;;12.73;12.13;;;21.60;10.60;;;;;;5115213;28;20279;-73
2021/05/24 11:02:26;;;;;;;12.53;12.03;;;21.40;10.20;;;;;;5114494;28;20467;-73
2021/05/24 11:05:03;;;;;;;14.50;13.70;;;21.40;10.00;;;;;;5114517;28;20537;-74
2021/05/24 11:07:32;;;;;;;13.67;13.17;;;21.50;10.70;;;;;;5118050;28;20455;-74
2021/05/24 11:10:17;;;;;;;12.30;11.80;;;21.50;9.30;;;;;;5131616;22;20429;-73
2021/05/24 11:12:43;;;;;;;12.60;12.03;;;21.40;10.70;;;;;;5125341;28;20415;-72
2021/05/24 11:15:23;;;;;;;12.53;11.93;;;21.60;10.70;;;;;;5107604;28;20418;-72
2021/05/24 11:18:01;;;;;;;13.03;12.43;;;21.80;10.20;;;;;;5125227;28;20418;-70
2021/05/24 11:20:37;;;;;;;13.60;13.10;;;22.00;8.90;;;;;;5124229;28;20463;-71
2021/05/24 11:26:37;;;;;;;14.90;14.30;;;22.60;5.70;;;;;;5125868;28;20465;-70
2021/05/24 11:29:17;;;;;;;19.23;18.13;;;22.60;7.10;;;;;;5124574;28;20835;-73
2021/05/24 11:31:56;;;;;;;14.27;13.67;;;22.70;5.60;;;;;;5106812;28;20438;-72
2021/05/24 11:34:35;;;;;;;13.00;12.50;;;22.80;3.50;;;;;;5125287;28;20414;-72
2021/05/24 11:37:07;;;;;;;13.93;13.27;;;22.90;5.50;;;;;;5125817;28;20884;-71
2021/05/24 11:39:34;;;;;;;13.40;12.70;;;22.60;2.20;;;;;;5124852;28;20418;-73
2021/05/24 11:42:10;;;;;;;13.73;13.23;;;22.60;3.10;;;;;;5125212;28;20437;-72
2021/05/24 11:44:47;;;;;;;13.57;12.97;;;22.90;1.70;;;;;;5125283;28;20456;-72
2021/05/24 11:47:19;;;;;;;14.20;13.70;;;23.10;3.70;;;;;;5124600;28;20434;-71
2021/05/24 11:49:48;;;;;;;14.70;13.80;;;23.20;6.30;;;;;;5123274;28;20399;-71
2021/05/24 11:52:17;;;;;;;13.80;13.20;;;23.20;6.30;;;;;;5124063;28;20407;-71
2021/05/24 11:54:47;;;;;;;13.70;13.20;;;23.30;1.60;;;;;;5124768;28;20418;-73
2021/05/24 11:57:13;;;;;;;13.67;13.17;;;23.10;1.00;;;;;;5123758;28;20410;-73
2021/05/24 11:59:39;;;;;;;14.10;13.60;;;23.10;1.50;;;;;;5124417;28;20438;-71
2021/05/24 12:02:05;;;;;;;15.60;15.00;;;;;;;;;;5124272;28;20415;-73
2021/05/24 12:04:33;;;;;;;14.53;14.03;;;;;;;;;;5124190;28;20199;-73
2021/05/24 12:07:06;;;;;;;14.87;13.83;;;23.20;3.50;;;;;;5124663;28;20415;-71
2021/05/24 12:09:33;;;;;;;14.83;14.23;;;23.10;3.30;;;;;;5123945;28;20433;-71
2021/05/24 12:12:00;;;;;;;13.87;13.37;;;22.80;4.00;;;;;;5124377;28;20444;-72
2021/05/24 12:14:26;;;;;;;14.37;13.83;;;22.80;5.50;;;;;;5124516;28;20489;-72
2021/05/24 12:16:53;;;;;;;13.83;13.27;;;22.80;4.90;;;;;;5101241;28;20461;-72
2021/05/24 12:19:26;;;;;;;13.87;13.37;;;22.50;6.00;;;;;;5112696;28;20485;-71
2021/05/24 12:21:58;;;;;;;14.70;14.10;;;22.40;2.40;;;;;;5095243;28;20450;-70
2021/05/24 12:24:23;;;;;;;14.10;13.60;;;22.20;3.90;;;;;;5113580;28;20962;-69
2021/05/24 12:26:54;;;;;;;15.07;14.20;;;22.00;7.60;;;;;;5113348;28;20419;-72
2021/05/24 12:29:31;;;;;;;14.77;14.07;;;21.80;8.80;;;;;;5113540;28;20173;-72
2021/05/24 12:31:59;;;;;;;12.97;12.47;;;21.70;8.70;;;;;;5113589;28;20815;-71
2021/05/24 12:34:40;;;;;;;15.40;14.40;;;21.60;9.60;;;;;;5095128;28;20426;-72
2021/05/24 12:37:09;;;;;;;14.83;14.23;;;21.20;4.80;;;;;;5113238;28;20418;-71
2021/05/24 12:39:38;;;;;;;14.00;13.40;;;21.30;8.50;;;;;;5113010;28;20442;-71
2021/05/24 12:42:06;;;;;;;13.67;13.17;;;21.50;10.20;;;;;;5113241;28;20422;-72
2021/05/24 12:44:35;;;;;;;14.10;13.60;;;21.70;9.40;;;;;;5113160;28;20511;-71
2021/05/24 12:47:21;;;;;;;14.50;13.70;;;21.90;10.00;;;;;;5113194;28;20886;-72
2021/05/24 12:49:48;;;;;;;15.77;14.47;;;22.10;9.00;;;;;;5112699;28;20457;-70
2021/05/24 12:52:15;;;;;;;14.47;13.97;;;22.20;6.00;;;;;;5113036;28;20402;-70